sensor_id;sensor_type;location;lat;lon;timestamp;pressure;altitude;pressure_sealevel;temperature;humidity
5522;BME280;2783;48.730;8.006;2023-10-08T00:01:18;101028.13;;;14.47;85.79
5522;BME280;2783;48.730;8.006;2023-10-08T00:03:45;101029.84;;;14.49;84.78
5522;BME280;2783;48.730;8.006;2023-10-08T00:06:14;101037.38;;;14.37;83.52
5522;BME280;2783;48.730;8.006;2023-10-08T00:08:40;101032.81;;;14.40;83.82
5522;BME280;2783;48.730;8.006;2023-10-08T00:11:06;101040.13;;;14.35;83.18
5522;BME280;2783;48.730;8.006;2023-10-08T00:13:32;101032.25;;;14.31;83.10
5522;BME280;2783;48.730;8.006;2023-10-08T00:16:06;101028.69;;;14.30;84.26
5522;BME280;2783;48.730;8.006;2023-10-08T00:18:35;101031.25;;;14.33;84.12
5522;BME280;2783;48.730;8.006;2023-10-08T00:21:01;101029.56;;;14.31;82.77
5522;BME280;2783;48.730;8.006;2023-10-08T00:23:36;101030.47;;;14.30;82.92
5522;BME280;2783;48.730;8.006;2023-10-08T00:26:07;101020.53;;;14.33;81.90
5522;BME280;2783;48.730;8.006;2023-10-08T00:28:33;101029.50;;;14.32;82.00
5522;BME280;2783;48.730;8.006;2023-10-08T00:30:58;101027.66;;;14.34;82.54
5522;BME280;2783;48.730;8.006;2023-10-08T00:33:31;101013.25;;;14.38;82.66
5522;BME280;2783;48.730;8.006;2023-10-08T00:35:57;101015.88;;;14.40;81.78
5522;BME280;2783;48.730;8.006;2023-10-08T00:38:22;101017.63;;;14.41;81.43
5522;BME280;2783;48.730;8.006;2023-10-08T00:40:50;101018.50;;;14.41;81.93
5522;BME280;2783;48.730;8.006;2023-10-08T00:43:34;101012.28;;;14.41;81.84
5522;BME280;2783;48.730;8.006;2023-10-08T00:46:07;101001.84;;;14.32;82.33
5522;BME280;2783;48.730;8.006;2023-10-08T00:48:46;101009.78;;;14.35;81.95
5522;BME280;2783;48.730;8.006;2023-10-08T00:51:13;101013.44;;;14.32;82.87
5522;BME280;2783;48.730;8.006;2023-10-08T00:53:54;101007.22;;;14.32;83.12
5522;BME280;2783;48.730;8.006;2023-10-08T00:56:26;101010.94;;;14.28;82.46
5522;BME280;2783;48.730;8.006;2023-10-08T00:59:09;101025.22;;;14.27;83.06
5522;BME280;2783;48.730;8.006;2023-10-08T01:01:38;101015.53;;;14.23;82.58
5522;BME280;2783;48.730;8.006;2023-10-08T01:04:04;101015.75;;;14.15;82.17
5522;BME280;2783;48.730;8.006;2023-10-08T01:06:37;101024.56;;;14.19;82.88
5522;BME280;2783;48.730;8.006;2023-10-08T01:09:05;101025.53;;;14.16;82.45
5522;BME280;2783;48.730;8.006;2023-10-08T01:11:43;101024.91;;;14.08;82.51
5522;BME280;2783;48.730;8.006;2023-10-08T01:14:15;101016.13;;;14.03;83.07
5522;BME280;2783;48.730;8.006;2023-10-08T01:16:41;101016.19;;;14.02;82.78
5522;BME280;2783;48.730;8.006;2023-10-08T01:19:11;101010.84;;;14.02;83.07
5522;BME280;2783;48.730;8.006;2023-10-08T01:21:39;101009.81;;;14.06;83.41
5522;BME280;2783;48.730;8.006;2023-10-08T01:24:05;101008.91;;;14.05;82.61
5522;BME280;2783;48.730;8.006;2023-10-08T01:26:35;101008.16;;;14.02;82.73
5522;BME280;2783;48.730;8.006;2023-10-08T01:29:08;101012.63;;;14.01;83.34
5522;BME280;2783;48.730;8.006;2023-10-08T01:31:34;101015.34;;;14.00;82.58
5522;BME280;2783;48.730;8.006;2023-10-08T01:34:02;101016.19;;;14.02;83.04
5522;BME280;2783;48.730;8.006;2023-10-08T01:36:30;101007.38;;;13.98;82.80
5522;BME280;2783;48.730;8.006;2023-10-08T01:38:56;101010.09;;;13.97;82.46
5522;BME280;2783;48.730;8.006;2023-10-08T01:41:22;101019.03;;;13.96;82.02
5522;BME280;2783;48.730;8.006;2023-10-08T01:43:54;101019.91;;;13.96;81.16
5522;BME280;2783;48.730;8.006;2023-10-08T01:46:20;101013.78;;;13.93;81.91
5522;BME280;2783;48.730;8.006;2023-10-08T01:48:48;101010.28;;;13.91;81.93
5522;BME280;2783;48.730;8.006;2023-10-08T01:51:19;101006.75;;;13.89;82.03
5522;BME280;2783;48.730;8.006;2023-10-08T01:53:54;101000.56;;;13.88;81.68
5522;BME280;2783;48.730;8.006;2023-10-08T01:56:23;101006.69;;;13.92;81.82
5522;BME280;2783;48.730;8.006;2023-10-08T01:58:49;101012.84;;;13.94;81.43
5522;BME280;2783;48.730;8.006;2023-10-08T02:01:19;101009.25;;;13.95;81.24
5522;BME280;2783;48.730;8.006;2023-10-08T02:03:45;101005.66;;;13.96;81.46
5522;BME280;2783;48.730;8.006;2023-10-08T02:06:10;101008.47;;;13.91;80.79
5522;BME280;2783;48.730;8.006;2023-10-08T02:08:38;101008.53;;;13.90;80.92
5522;BME280;2783;48.730;8.006;2023-10-08T02:11:03;101002.25;;;13.91;80.25
5522;BME280;2783;48.730;8.006;2023-10-08T02:13:28;101010.41;;;13.86;80.08
5522;BME280;2783;48.730;8.006;2023-10-08T02:15:56;101007.84;;;13.83;80.69
5522;BME280;2783;48.730;8.006;2023-10-08T02:18:23;101016.00;;;13.79;81.21
5522;BME280;2783;48.730;8.006;2023-10-08T02:20:48;101002.75;;;13.74;80.68
5522;BME280;2783;48.730;8.006;2023-10-08T02:23:14;101005.31;;;13.79;81.30
5522;BME280;2783;48.730;8.006;2023-10-08T02:25:40;101013.34;;;13.77;80.93
5522;BME280;2783;48.730;8.006;2023-10-08T02:28:07;101002.69;;;13.76;80.96
5522;BME280;2783;48.730;8.006;2023-10-08T02:30:41;100990.25;;;13.75;81.30
5522;BME280;2783;48.730;8.006;2023-10-08T02:33:07;100993.09;;;13.70;81.12
5522;BME280;2783;48.730;8.006;2023-10-08T02:35:42;100996.81;;;13.65;81.78
5522;BME280;2783;48.730;8.006;2023-10-08T02:38:10;100999.56;;;13.62;82.41
5522;BME280;2783;48.730;8.006;2023-10-08T02:40:38;101002.25;;;13.62;82.15
5522;BME280;2783;48.730;8.006;2023-10-08T02:43:10;101003.13;;;13.62;81.45
5522;BME280;2783;48.730;8.006;2023-10-08T02:45:36;100998.63;;;13.63;81.69
5522;BME280;2783;48.730;8.006;2023-10-08T02:48:05;101000.47;;;13.61;81.73
5522;BME280;2783;48.730;8.006;2023-10-08T02:50:40;100995.13;;;13.61;81.46
5522;BME280;2783;48.730;8.006;2023-10-08T02:53:06;100995.19;;;13.59;81.72
5522;BME280;2783;48.730;8.006;2023-10-08T02:55:39;100988.22;;;13.54;81.44
5522;BME280;2783;48.730;8.006;2023-10-08T02:58:10;100999.75;;;13.56;81.92
5522;BME280;2783;48.730;8.006;2023-10-08T03:00:43;100999.81;;;13.53;80.71
5522;BME280;2783;48.730;8.006;2023-10-08T03:03:09;100994.38;;;13.57;80.61
5522;BME280;2783;48.730;8.006;2023-10-08T03:06:02;100998.97;;;13.52;80.89
5522;BME280;2783;48.730;8.006;2023-10-08T03:08:28;100999.81;;;13.53;81.03
5522;BME280;2783;48.730;8.006;2023-10-08T03:10:56;100986.47;;;13.53;81.97
5522;BME280;2783;48.730;8.006;2023-10-08T03:13:28;100987.50;;;13.49;81.98
5522;BME280;2783;48.730;8.006;2023-10-08T03:15:53;100985.81;;;13.45;82.03
5522;BME280;2783;48.730;8.006;2023-10-08T03:18:28;100986.84;;;13.41;81.88
5522;BME280;2783;48.730;8.006;2023-10-08T03:21:06;100987.00;;;13.35;82.47
5522;BME280;2783;48.730;8.006;2023-10-08T03:23:46;100981.84;;;13.29;82.50
5522;BME280;2783;48.730;8.006;2023-10-08T03:26:13;100986.28;;;13.28;82.75
5522;BME280;2783;48.730;8.006;2023-10-08T03:29:03;100987.28;;;13.26;82.81
5522;BME280;2783;48.730;8.006;2023-10-08T03:31:41;100988.22;;;13.23;83.04
5522;BME280;2783;48.730;8.006;2023-10-08T03:34:29;100987.34;;;13.23;82.21
5522;BME280;2783;48.730;8.006;2023-10-08T03:36:59;100982.16;;;13.16;81.89
5522;BME280;2783;48.730;8.006;2023-10-08T03:39:31;100994.44;;;13.23;81.19
5522;BME280;2783;48.730;8.006;2023-10-08T03:42:19;100984.56;;;13.27;81.08
5522;BME280;2783;48.730;8.006;2023-10-08T03:44:45;100986.19;;;13.31;81.39
5522;BME280;2783;48.730;8.006;2023-10-08T03:47:16;100987.03;;;13.33;80.90
5522;BME280;2783;48.730;8.006;2023-10-08T03:49:44;100993.22;;;13.35;81.08
5522;BME280;2783;48.730;8.006;2023-10-08T03:52:11;100995.84;;;13.37;81.33
5522;BME280;2783;48.730;8.006;2023-10-08T03:54:38;100997.69;;;13.35;80.99
5522;BME280;2783;48.730;8.006;2023-10-08T03:57:08;100996.81;;;13.34;81.29
5522;BME280;2783;48.730;8.006;2023-10-08T04:00:09;100987.78;;;13.38;81.20
5522;BME280;2783;48.730;8.006;2023-10-08T04:02:39;100987.75;;;13.40;81.21
5522;BME280;2783;48.730;8.006;2023-10-08T04:05:06;100983.31;;;13.39;81.50
5522;BME280;2783;48.730;8.006;2023-10-08T04:07:44;100988.75;;;13.36;81.34
5522;BME280;2783;48.730;8.006;2023-10-08T04:10:26;100986.09;;;13.36;81.41
5522;BME280;2783;48.730;8.006;2023-10-08T04:13:04;100991.47;;;13.34;81.40
5522;BME280;2783;48.730;8.006;2023-10-08T04:15:37;100996.03;;;13.31;81.13
5522;BME280;2783;48.730;8.006;2023-10-08T04:18:10;100995.25;;;13.27;81.76
5522;BME280;2783;48.730;8.006;2023-10-08T04:20:36;100992.69;;;13.23;81.38
5522;BME280;2783;48.730;8.006;2023-10-08T04:23:09;100988.22;;;13.23;81.36
5522;BME280;2783;48.730;8.006;2023-10-08T04:25:39;100986.59;;;13.17;81.64
5522;BME280;2783;48.730;8.006;2023-10-08T04:28:07;100978.75;;;13.11;81.46
5522;BME280;2783;48.730;8.006;2023-10-08T04:30:38;100973.56;;;13.05;82.53
5522;BME280;2783;48.730;8.006;2023-10-08T04:33:07;100969.16;;;13.04;82.01
5522;BME280;2783;48.730;8.006;2023-10-08T04:35:37;100957.75;;;12.98;82.14
5522;BME280;2783;48.730;8.006;2023-10-08T04:38:17;100964.88;;;12.97;82.75
5522;BME280;2783;48.730;8.006;2023-10-08T04:40:47;100969.31;;;12.97;82.82
5522;BME280;2783;48.730;8.006;2023-10-08T04:43:18;100958.78;;;12.92;82.89
5522;BME280;2783;48.730;8.006;2023-10-08T04:45:54;100964.13;;;12.92;82.84
5522;BME280;2783;48.730;8.006;2023-10-08T04:48:19;100966.03;;;12.87;84.01
5522;BME280;2783;48.730;8.006;2023-10-08T04:50:57;100969.63;;;12.86;84.26
5522;BME280;2783;48.730;8.006;2023-10-08T04:53:30;100967.91;;;12.84;84.26
5522;BME280;2783;48.730;8.006;2023-10-08T04:56:07;100966.16;;;12.83;83.98
5522;BME280;2783;48.730;8.006;2023-10-08T04:58:39;100967.91;;;12.84;83.85
5522;BME280;2783;48.730;8.006;2023-10-08T05:01:07;100966.22;;;12.81;83.43
5522;BME280;2783;48.730;8.006;2023-10-08T05:03:54;100970.56;;;12.84;83.35
5522;BME280;2783;48.730;8.006;2023-10-08T05:06:23;100975.13;;;12.80;83.57
5522;BME280;2783;48.730;8.006;2023-10-08T05:09:05;100971.50;;;12.83;83.53
5522;BME280;2783;48.730;8.006;2023-10-08T05:11:42;100974.22;;;12.81;83.55
5522;BME280;2783;48.730;8.006;2023-10-08T05:14:20;100970.63;;;12.82;83.49
5522;BME280;2783;48.730;8.006;2023-10-08T05:17:02;100972.31;;;12.86;83.97
5522;BME280;2783;48.730;8.006;2023-10-08T05:19:47;100977.66;;;12.86;83.55
5522;BME280;2783;48.730;8.006;2023-10-08T05:22:17;100972.31;;;12.86;83.61
5522;BME280;2783;48.730;8.006;2023-10-08T05:24:49;100964.44;;;12.80;83.08
5522;BME280;2783;48.730;8.006;2023-10-08T05:27:37;100977.56;;;12.89;83.74
5522;BME280;2783;48.730;8.006;2023-10-08T05:30:06;100975.88;;;12.85;83.54
5522;BME280;2783;48.730;8.006;2023-10-08T05:32:45;100984.81;;;12.84;83.48
5522;BME280;2783;48.730;8.006;2023-10-08T05:35:37;100981.22;;;12.85;84.11
5522;BME280;2783;48.730;8.006;2023-10-08T05:38:07;100976.03;;;12.79;84.26
5522;BME280;2783;48.730;8.006;2023-10-08T05:40:42;100992.03;;;12.81;84.82
5522;BME280;2783;48.730;8.006;2023-10-08T05:43:36;100985.94;;;12.76;85.48
5522;BME280;2783;48.730;8.006;2023-10-08T05:46:06;100989.47;;;12.76;85.23
5522;BME280;2783;48.730;8.006;2023-10-08T05:48:44;100987.63;;;12.78;85.17
5522;BME280;2783;48.730;8.006;2023-10-08T05:51:26;101000.91;;;12.81;85.31
5522;BME280;2783;48.730;8.006;2023-10-08T05:54:31;100996.44;;;12.82;84.63
5522;BME280;2783;48.730;8.006;2023-10-08T05:57:04;100999.06;;;12.83;84.21
5522;BME280;2783;48.730;8.006;2023-10-08T05:59:39;101005.41;;;12.79;84.09
5522;BME280;2783;48.730;8.006;2023-10-08T06:02:21;101014.50;;;12.72;85.28
5522;BME280;2783;48.730;8.006;2023-10-08T06:05:03;101012.75;;;12.71;86.29
5522;BME280;2783;48.730;8.006;2023-10-08T06:07:42;101009.28;;;12.68;86.79
5522;BME280;2783;48.730;8.006;2023-10-08T06:15:56;101010.00;;;12.74;88.78
5522;BME280;2783;48.730;8.006;2023-10-08T06:18:26;101013.41;;;12.79;89.23
5522;BME280;2783;48.730;8.006;2023-10-08T06:20:53;101010.63;;;12.84;89.38
5522;BME280;2783;48.730;8.006;2023-10-08T06:23:24;101008.53;;;12.95;89.77
5522;BME280;2783;48.730;8.006;2023-10-08T06:25:51;101011.06;;;13.02;89.05
5522;BME280;2783;48.730;8.006;2023-10-08T06:28:22;101007.22;;;13.12;88.17
5522;BME280;2783;48.730;8.006;2023-10-08T06:30:52;101008.72;;;13.23;87.65
5522;BME280;2783;48.730;8.006;2023-10-08T06:33:23;101011.13;;;13.32;86.92
5522;BME280;2783;48.730;8.006;2023-10-08T06:36:02;101013.66;;;13.38;84.64
5522;BME280;2783;48.730;8.006;2023-10-08T06:38:31;101007.94;;;13.50;83.70
5522;BME280;2783;48.730;8.006;2023-10-08T06:41:01;101003.88;;;13.66;83.10
5522;BME280;2783;48.730;8.006;2023-10-08T06:43:48;101003.31;;;13.85;82.19
5522;BME280;2783;48.730;8.006;2023-10-08T06:46:30;100983.31;;;13.98;80.31
5522;BME280;2783;48.730;8.006;2023-10-08T06:49:02;101004.59;;;14.57;79.01
5522;BME280;2783;48.730;8.006;2023-10-08T06:51:28;101009.13;;;15.31;76.10
5522;BME280;2783;48.730;8.006;2023-10-08T06:53:56;101006.47;;;16.02;72.08
5522;BME280;2783;48.730;8.006;2023-10-08T06:56:24;101018.28;;;16.41;69.60
5522;BME280;2783;48.730;8.006;2023-10-08T06:58:50;101034.97;;;16.92;67.93
5522;BME280;2783;48.730;8.006;2023-10-08T07:01:18;101045.84;;;17.51;64.81
5522;BME280;2783;48.730;8.006;2023-10-08T07:03:50;101027.72;;;18.51;61.88
5522;BME280;2783;48.730;8.006;2023-10-08T07:06:17;101030.41;;;19.72;54.97
5522;BME280;2783;48.730;8.006;2023-10-08T07:08:51;101043.25;;;20.78;51.78
5522;BME280;2783;48.730;8.006;2023-10-08T07:11:20;101043.47;;;21.64;49.03
5522;BME280;2783;48.730;8.006;2023-10-08T07:13:45;101031.88;;;22.04;47.33
5522;BME280;2783;48.730;8.006;2023-10-08T07:16:11;101044.22;;;21.52;46.60
5522;BME280;2783;48.730;8.006;2023-10-08T07:18:37;101033.94;;;21.43;47.96
5522;BME280;2783;48.730;8.006;2023-10-08T07:21:03;101039.81;;;22.22;46.24
5522;BME280;2783;48.730;8.006;2023-10-08T07:23:38;101045.72;;;23.09;44.22
5522;BME280;2783;48.730;8.006;2023-10-08T07:26:22;101052.59;;;23.67;42.44
5522;BME280;2783;48.730;8.006;2023-10-08T07:28:50;101052.78;;;23.51;42.81
5522;BME280;2783;48.730;8.006;2023-10-08T07:31:22;101059.66;;;23.82;42.56
5522;BME280;2783;48.730;8.006;2023-10-08T07:33:54;101047.53;;;24.00;41.87
5522;BME280;2783;48.730;8.006;2023-10-08T07:36:24;101050.75;;;24.30;41.77
5522;BME280;2783;48.730;8.006;2023-10-08T07:38:51;101044.03;;;24.59;41.04
5522;BME280;2783;48.730;8.006;2023-10-08T07:41:16;101052.69;;;24.77;40.29
5522;BME280;2783;48.730;8.006;2023-10-08T07:43:44;101054.00;;;24.84;40.17
5522;BME280;2783;48.730;8.006;2023-10-08T07:46:26;101055.72;;;25.08;39.42
5522;BME280;2783;48.730;8.006;2023-10-08T07:48:52;101056.78;;;25.29;39.18
5522;BME280;2783;48.730;8.006;2023-10-08T07:51:18;101060.16;;;25.56;38.19
5522;BME280;2783;48.730;8.006;2023-10-08T07:53:50;101054.69;;;24.98;39.34
5522;BME280;2783;48.730;8.006;2023-10-08T07:56:20;101055.31;;;24.78;39.89
5522;BME280;2783;48.730;8.006;2023-10-08T07:58:45;101056.22;;;24.66;40.17
5522;BME280;2783;48.730;8.006;2023-10-08T08:01:12;101053.91;;;24.60;40.12
5522;BME280;2783;48.730;8.006;2023-10-08T08:03:40;101045.50;;;24.27;40.86
5522;BME280;2783;48.730;8.006;2023-10-08T08:06:09;101049.34;;;23.87;41.34
5522;BME280;2783;48.730;8.006;2023-10-08T08:08:36;101054.09;;;23.19;42.76
5522;BME280;2783;48.730;8.006;2023-10-08T08:11:05;101058.56;;;22.67;44.22
5522;BME280;2783;48.730;8.006;2023-10-08T08:13:39;101061.09;;;22.96;44.34
5522;BME280;2783;48.730;8.006;2023-10-08T08:16:07;101068.50;;;23.07;44.36
5522;BME280;2783;48.730;8.006;2023-10-08T08:18:45;101067.31;;;22.84;45.04
5522;BME280;2783;48.730;8.006;2023-10-08T08:21:13;101068.25;;;22.43;46.08
5522;BME280;2783;48.730;8.006;2023-10-08T08:23:45;101076.97;;;23.02;46.13
5522;BME280;2783;48.730;8.006;2023-10-08T08:26:16;101076.09;;;24.05;44.88
5522;BME280;2783;48.730;8.006;2023-10-08T08:29:01;101081.38;;;24.93;42.71
5522;BME280;2783;48.730;8.006;2023-10-08T08:31:29;101087.75;;;25.52;41.51
5522;BME280;2783;48.730;8.006;2023-10-08T08:34:01;101078.94;;;25.83;41.02
5522;BME280;2783;48.730;8.006;2023-10-08T08:36:39;101077.38;;;26.14;40.50
5522;BME280;2783;48.730;8.006;2023-10-08T08:39:11;101087.06;;;26.40;39.66
5522;BME280;2783;48.730;8.006;2023-10-08T08:41:37;101083.94;;;26.77;39.38
5522;BME280;2783;48.730;8.006;2023-10-08T08:44:03;101079.63;;;26.75;39.08
5522;BME280;2783;48.730;8.006;2023-10-08T08:46:33;101089.69;;;27.17;38.25
5522;BME280;2783;48.730;8.006;2023-10-08T08:49:08;101086.00;;;27.07;37.83
5522;BME280;2783;48.730;8.006;2023-10-08T08:51:37;101087.03;;;26.95;37.27
5522;BME280;2783;48.730;8.006;2023-10-08T08:54:04;101092.72;;;26.92;38.13
5522;BME280;2783;48.730;8.006;2023-10-08T08:56:37;101092.16;;;27.20;37.44
5522;BME280;2783;48.730;8.006;2023-10-08T08:59:06;101090.75;;;26.94;37.61
5522;BME280;2783;48.730;8.006;2023-10-08T09:01:32;101095.09;;;26.96;38.20
5522;BME280;2783;48.730;8.006;2023-10-08T09:04:01;101094.75;;;26.90;37.60
5522;BME280;2783;48.730;8.006;2023-10-08T09:06:30;101096.16;;;27.16;37.10
5522;BME280;2783;48.730;8.006;2023-10-08T09:09:02;101102.59;;;27.26;37.02
5522;BME280;2783;48.730;8.006;2023-10-08T09:11:50;101098.88;;;27.59;36.87
5522;BME280;2783;48.730;8.006;2023-10-08T09:14:23;101101.44;;;27.92;36.42
5522;BME280;2783;48.730;8.006;2023-10-08T09:16:55;101109.56;;;28.03;36.40
5522;BME280;2783;48.730;8.006;2023-10-08T09:19:21;101099.59;;;27.81;37.22
5522;BME280;2783;48.730;8.006;2023-10-08T09:22:07;101106.81;;;27.82;36.11
5522;BME280;2783;48.730;8.006;2023-10-08T09:24:34;101094.78;;;28.05;36.88
5522;BME280;2783;48.730;8.006;2023-10-08T09:27:03;101103.69;;;28.07;35.90
5522;BME280;2783;48.730;8.006;2023-10-08T09:29:28;101085.88;;;28.13;35.65
5522;BME280;2783;48.730;8.006;2023-10-08T09:31:58;101069.97;;;27.86;36.10
5522;BME280;2783;48.730;8.006;2023-10-08T09:34:26;101071.09;;;27.95;36.11
5522;BME280;2783;48.730;8.006;2023-10-08T09:36:53;101077.72;;;27.81;35.30
5522;BME280;2783;48.730;8.006;2023-10-08T09:39:20;101065.16;;;27.06;35.73
5522;BME280;2783;48.730;8.006;2023-10-08T09:41:53;101076.13;;;27.58;36.57
5522;BME280;2783;48.730;8.006;2023-10-08T09:44:19;101085.69;;;28.05;36.68
5522;BME280;2783;48.730;8.006;2023-10-08T09:46:49;101080.88;;;28.48;36.47
5522;BME280;2783;48.730;8.006;2023-10-08T09:49:44;101078.81;;;28.71;35.42
5522;BME280;2783;48.730;8.006;2023-10-08T09:52:07;101087.78;;;28.92;35.66
5522;BME280;2783;48.730;8.006;2023-10-08T09:54:43;101081.78;;;28.98;34.88
5522;BME280;2783;48.730;8.006;2023-10-08T09:57:10;101082.69;;;29.27;34.94
5522;BME280;2783;48.730;8.006;2023-10-08T09:59:37;101083.28;;;29.21;33.61
5522;BME280;2783;48.730;8.006;2023-10-08T10:02:06;101081.53;;;29.29;33.98
5522;BME280;2783;48.730;8.006;2023-10-08T10:04:35;101080.38;;;29.41;34.27
5522;BME280;2783;48.730;8.006;2023-10-08T10:07:14;101081.84;;;29.55;33.94
5522;BME280;2783;48.730;8.006;2023-10-08T10:09:45;101079.53;;;29.79;33.61
5522;BME280;2783;48.730;8.006;2023-10-08T10:12:12;101075.19;;;29.86;33.83
5522;BME280;2783;48.730;8.006;2023-10-08T10:14:45;101072.47;;;29.77;33.58
5522;BME280;2783;48.730;8.006;2023-10-08T10:17:21;101070.28;;;29.80;33.68
5522;BME280;2783;48.730;8.006;2023-10-08T10:19:54;101072.88;;;29.82;32.93
5522;BME280;2783;48.730;8.006;2023-10-08T10:22:34;101066.19;;;29.94;33.24
5522;BME280;2783;48.730;8.006;2023-10-08T10:25:03;101069.06;;;30.02;33.67
5522;BME280;2783;48.730;8.006;2023-10-08T10:27:41;101075.38;;;30.21;33.28
5522;BME280;2783;48.730;8.006;2023-10-08T10:30:07;101071.66;;;30.13;32.91
5522;BME280;2783;48.730;8.006;2023-10-08T10:32:36;101068.13;;;30.30;33.42
5522;BME280;2783;48.730;8.006;2023-10-08T10:35:03;101066.47;;;30.46;33.21
5522;BME280;2783;48.730;8.006;2023-10-08T10:37:32;101064.56;;;30.56;32.86
5522;BME280;2783;48.730;8.006;2023-10-08T10:40:07;101058.97;;;30.75;32.26
5522;BME280;2783;48.730;8.006;2023-10-08T10:42:38;101054.31;;;30.76;33.35
5522;BME280;2783;48.730;8.006;2023-10-08T10:45:13;101050.53;;;30.86;33.69
5522;BME280;2783;48.730;8.006;2023-10-08T10:47:58;101051.75;;;31.02;32.60
5522;BME280;2783;48.730;8.006;2023-10-08T10:50:39;101051.91;;;31.18;32.58
5522;BME280;2783;48.730;8.006;2023-10-08T10:53:17;101052.94;;;31.52;32.35
5522;BME280;2783;48.730;8.006;2023-10-08T10:55:43;101047.38;;;31.44;32.16
5522;BME280;2783;48.730;8.006;2023-10-08T10:58:24;101050.84;;;31.71;32.42
5522;BME280;2783;48.730;8.006;2023-10-08T11:00:50;101059.28;;;31.87;32.24
5522;BME280;2783;48.730;8.006;2023-10-08T11:03:22;101054.81;;;31.69;31.93
5522;BME280;2783;48.730;8.006;2023-10-08T11:05:57;101053.59;;;31.46;33.28
5522;BME280;2783;48.730;8.006;2023-10-08T11:08:31;101051.19;;;31.86;33.00
5522;BME280;2783;48.730;8.006;2023-10-08T11:11:00;101046.88;;;32.09;33.05
5522;BME280;2783;48.730;8.006;2023-10-08T11:13:32;101047.19;;;32.32;32.53
5522;BME280;2783;48.730;8.006;2023-10-08T11:16:04;101045.91;;;32.44;33.58
5522;BME280;2783;48.730;8.006;2023-10-08T11:18:30;101050.22;;;32.46;31.76
5522;BME280;2783;48.730;8.006;2023-10-08T11:21:08;101041.53;;;32.67;31.81
5522;BME280;2783;48.730;8.006;2023-10-08T11:23:46;101041.97;;;32.54;30.91
5522;BME280;2783;48.730;8.006;2023-10-08T11:26:19;101039.16;;;32.38;32.14
5522;BME280;2783;48.730;8.006;2023-10-08T11:28:45;101040.22;;;32.45;31.69
5522;BME280;2783;48.730;8.006;2023-10-08T11:31:15;101036.47;;;32.54;31.25
5522;BME280;2783;48.730;8.006;2023-10-08T11:33:45;101028.59;;;32.34;32.09
5522;BME280;2783;48.730;8.006;2023-10-08T11:36:21;101019.53;;;32.41;31.89
5522;BME280;2783;48.730;8.006;2023-10-08T11:38:56;101016.38;;;32.36;31.81
5522;BME280;2783;48.730;8.006;2023-10-08T11:41:32;101010.56;;;32.39;32.30
5522;BME280;2783;48.730;8.006;2023-10-08T11:44:15;101004.22;;;32.39;32.70
5522;BME280;2783;48.730;8.006;2023-10-08T11:46:45;101002.06;;;32.33;32.93
5522;BME280;2783;48.730;8.006;2023-10-08T11:49:11;101004.88;;;32.07;31.98
5522;BME280;2783;48.730;8.006;2023-10-08T11:51:51;100999.66;;;32.30;32.42
5522;BME280;2783;48.730;8.006;2023-10-08T11:54:21;101002.91;;;32.25;32.98
5522;BME280;2783;48.730;8.006;2023-10-08T11:56:48;101001.09;;;32.08;32.60
5522;BME280;2783;48.730;8.006;2023-10-08T11:59:14;100992.03;;;32.57;31.71
5522;BME280;2783;48.730;8.006;2023-10-08T12:01:39;100990.13;;;32.91;32.92
5522;BME280;2783;48.730;8.006;2023-10-08T12:04:09;100989.78;;;32.94;30.34
5522;BME280;2783;48.730;8.006;2023-10-08T12:06:40;100988.31;;;32.74;30.65
5522;BME280;2783;48.730;8.006;2023-10-08T12:09:12;100989.88;;;32.35;31.83
5522;BME280;2783;48.730;8.006;2023-10-08T12:11:38;100987.22;;;32.51;31.91
5522;BME280;2783;48.730;8.006;2023-10-08T12:14:05;100981.50;;;32.45;32.46
5522;BME280;2783;48.730;8.006;2023-10-08T12:16:30;100988.63;;;32.30;31.86
5522;BME280;2783;48.730;8.006;2023-10-08T12:19:00;100984.34;;;32.27;32.25
5522;BME280;2783;48.730;8.006;2023-10-08T12:21:27;100980.34;;;32.22;32.83
5522;BME280;2783;48.730;8.006;2023-10-08T12:23:55;100978.47;;;32.22;33.47
5522;BME280;2783;48.730;8.006;2023-10-08T12:26:21;100982.69;;;32.08;32.05
5522;BME280;2783;48.730;8.006;2023-10-08T12:28:48;100978.28;;;31.90;32.80
5522;BME280;2783;48.730;8.006;2023-10-08T12:31:17;100981.91;;;31.90;32.88
5522;BME280;2783;48.730;8.006;2023-10-08T12:33:47;100974.28;;;31.84;33.88
5522;BME280;2783;48.730;8.006;2023-10-08T12:36:12;100978.31;;;31.98;33.69
5522;BME280;2783;48.730;8.006;2023-10-08T12:38:42;100978.41;;;32.14;33.67
5522;BME280;2783;48.730;8.006;2023-10-08T12:41:11;100967.72;;;32.11;33.38
5522;BME280;2783;48.730;8.006;2023-10-08T12:43:42;100975.03;;;32.28;32.90
5522;BME280;2783;48.730;8.006;2023-10-08T12:46:08;100964.00;;;32.62;32.68
5522;BME280;2783;48.730;8.006;2023-10-08T12:48:41;100967.59;;;32.62;31.83
5522;BME280;2783;48.730;8.006;2023-10-08T12:51:09;100968.63;;;32.61;31.93
5522;BME280;2783;48.730;8.006;2023-10-08T12:53:36;100967.84;;;32.77;31.95
5522;BME280;2783;48.730;8.006;2023-10-08T12:56:06;100970.69;;;32.59;30.92
5522;BME280;2783;48.730;8.006;2023-10-08T12:58:36;100968.22;;;32.40;31.92
5522;BME280;2783;48.730;8.006;2023-10-08T13:01:16;100963.44;;;32.42;32.97
5522;BME280;2783;48.730;8.006;2023-10-08T13:03:46;100955.78;;;32.36;33.19
5522;BME280;2783;48.730;8.006;2023-10-08T13:06:16;100954.81;;;32.45;33.48
5522;BME280;2783;48.730;8.006;2023-10-08T13:08:51;100948.00;;;32.65;32.38
5522;BME280;2783;48.730;8.006;2023-10-08T13:11:22;100945.91;;;32.59;32.46
5522;BME280;2783;48.730;8.006;2023-10-08T13:13:54;100945.59;;;32.78;33.03
5522;BME280;2783;48.730;8.006;2023-10-08T13:16:24;100938.00;;;32.80;32.21
5522;BME280;2783;48.730;8.006;2023-10-08T13:18:51;100934.53;;;32.62;31.70
5522;BME280;2783;48.730;8.006;2023-10-08T13:21:17;100934.06;;;32.83;31.46
5522;BME280;2783;48.730;8.006;2023-10-08T13:23:44;100932.13;;;32.67;30.38
5522;BME280;2783;48.730;8.006;2023-10-08T13:26:11;100936.56;;;32.44;30.28
5522;BME280;2783;48.730;8.006;2023-10-08T13:28:42;100921.75;;;32.45;30.86
5522;BME280;2783;48.730;8.006;2023-10-08T13:31:08;100931.72;;;32.38;29.54
5522;BME280;2783;48.730;8.006;2023-10-08T13:33:40;100929.63;;;32.32;30.22
5522;BME280;2783;48.730;8.006;2023-10-08T13:36:08;100928.50;;;32.09;30.55
5522;BME280;2783;48.730;8.006;2023-10-08T13:38:37;100919.13;;;31.94;31.02